Time;durP1;ratioP1;P1;durP2;ratioP2;P2;SDS_P1;SDS_P2;PMS_P1;PMS_P2;Temp;Humidity;BMP_temperature;BMP_pressure;BME280_temperature;BME280_humidity;BME280_pressure;Samples;Min_cycle;Max_cycle;Signal;HPM_P1;HPM_P2
2022/08/13 00:00:09;;;;;;;4.18;1.58;;;;;;;22.98;35.24;100008.34;5045220;28;20045;-88
2022/08/13 00:02:36;;;;;;;4.80;1.85;;;;;;;22.90;35.68;99998.16;5030726;28;20522;-82
2022/08/13 00:05:02;;;;;;;3.72;1.50;;;;;;;22.95;35.70;100003.50;5030425;28;20041;-81
2022/08/13 00:07:28;;;;;;;3.15;1.75;;;;;;;23.02;35.47;99994.59;5031050;28;20104;-81
2022/08/13 00:09:55;;;;;;;4.82;1.58;;;;;;;23.07;35.41;100002.69;5042670;28;20340;-81
2022/08/13 00:15:28;;;;;;;6.70;2.20;;;;;;;23.09;35.59;99999.56;5045871;28;20053;-81
2022/08/13 00:17:57;;;;;;;3.42;1.65;;;;;;;23.04;35.71;100008.13;5050528;28;20111;-81
2022/08/13 00:20:26;;;;;;;2.83;1.40;;;;;;;23.05;35.69;99993.06;5048655;28;20075;-85
2022/08/13 00:22:54;;;;;;;2.72;1.75;;;;;;;23.06;35.81;99994.72;5051346;28;20499;-84
2022/08/13 00:25:20;;;;;;;3.22;1.90;;;;;;;22.98;35.96;99994.44;5043135;28;20041;-94
2022/08/13 00:27:47;;;;;;;5.03;2.00;;;;;;;22.92;35.72;100006.97;5034419;28;20033;-94
2022/08/13 00:30:15;;;;;;;5.45;1.90;;;;;;;22.93;36.04;100000.25;5044045;28;20496;-83
2022/08/13 00:32:43;;;;;;;2.40;1.33;;;;;;;22.83;36.14;100000.66;5050746;28;20040;-82
2022/08/13 00:35:09;;;;;;;5.38;1.83;;;;;;;22.84;36.17;99994.75;5044753;28;20041;-83
2022/08/13 00:37:37;;;;;;;5.07;1.90;;;;;;;22.94;36.15;99996.28;5030902;28;20029;-83
2022/08/13 00:40:06;;;;;;;10.10;2.97;;;;;;;22.96;36.07;99999.53;5040617;28;20037;-83
2022/08/13 00:42:32;;;;;;;6.05;1.65;;;;;;;23.00;36.18;99982.19;5031753;28;20033;-83
2022/08/13 00:44:58;;;;;;;2.97;1.75;;;;;;;22.98;36.49;99983.31;5031166;28;20306;-82
2022/08/13 00:50:12;;;;;;;5.55;1.80;;;;;;;22.94;36.87;99982.41;5042616;28;20117;-83
2022/08/13 00:52:40;;;;;;;4.30;1.98;;;;;;;22.85;37.27;99981.69;5030546;28;20033;-83
2022/08/13 00:55:09;;;;;;;6.60;2.45;;;;;;;22.80;37.51;99987.47;5030531;28;20468;-84
2022/08/13 00:57:35;;;;;;;6.35;2.13;;;;;;;22.82;37.56;99985.16;5029382;28;20037;-80
2022/08/13 01:00:11;;;;;;;8.32;2.83;;;;;;;22.78;38.12;99984.22;5043789;28;20049;-80
2022/08/13 01:02:38;;;;;;;4.05;2.22;;;;;;;22.67;38.50;99981.88;5030074;28;20021;-82
2022/08/13 01:05:04;;;;;;;4.85;2.15;;;;;;;22.57;38.60;99983.09;5029381;28;20330;-82
2022/08/13 01:07:30;;;;;;;2.60;1.80;;;;;;;22.47;38.96;99983.50;5030357;28;20112;-82
2022/08/13 01:09:55;;;;;;;6.35;2.63;;;;;;;22.39;39.27;99979.66;5031537;28;20037;-81
2022/08/13 01:12:23;;;;;;;8.90;1.92;;;;;;;22.21;39.73;99981.78;5029977;28;20021;-81
2022/08/13 01:14:51;;;;;;;10.40;3.33;;;;;;;22.16;40.32;99982.78;5029127;28;20060;-81
2022/08/13 01:17:22;;;;;;;2.97;1.85;;;;;;;22.01;39.83;99981.41;5048064;28;20045;-83
2022/08/13 01:19:49;;;;;;;4.57;2.15;;;;;;;21.95;40.81;99983.59;5045567;28;20037;-84
2022/08/13 01:22:16;;;;;;;3.75;2.25;;;;;;;21.84;40.95;99974.03;5031457;28;20033;-90
2022/08/13 01:24:42;;;;;;;6.90;3.25;;;;;;;21.77;40.93;99980.06;5031642;28;20033;-90
2022/08/13 01:27:09;;;;;;;4.50;2.13;;;;;;;21.68;40.68;99980.94;5050190;28;20061;-82
2022/08/13 01:29:36;;;;;;;4.18;2.30;;;;;;;21.65;41.10;99983.56;5047175;28;20483;-80
2022/08/13 01:32:02;;;;;;;5.18;2.35;;;;;;;21.60;40.73;99986.56;5050663;28;20472;-84
2022/08/13 01:34:31;;;;;;;4.20;2.40;;;;;;;21.64;41.19;99976.41;5048557;28;20029;-84
2022/08/13 01:36:57;;;;;;;7.20;2.67;;;;;;;21.66;40.90;99976.91;5049523;28;20423;-81
2022/08/13 01:39:27;;;;;;;4.22;2.50;;;;;;;21.70;40.52;99977.84;5049092;28;20063;-81
2022/08/13 01:41:53;;;;;;;6.47;2.92;;;;;;;21.68;40.95;99974.59;5030075;28;20141;-80
2022/08/13 01:44:19;;;;;;;4.60;2.42;;;;;;;21.69;41.27;99973.44;5069491;28;20025;-80
2022/08/13 01:52:13;;;;;;;3.10;2.17;;;;;;;21.75;40.33;99969.31;5030155;28;20040;-83
2022/08/13 01:54:40;;;;;;;3.85;2.20;;;;;;;21.77;40.60;99975.34;5045861;28;20030;-82
2022/08/13 01:57:07;;;;;;;12.38;2.33;;;;;;;21.79;40.40;99975.84;5051362;28;20131;-94
2022/08/13 01:59:35;;;;;;;3.08;1.98;;;;;;;21.72;40.20;99969.19;5047187;28;20136;-94
2022/08/13 02:02:02;;;;;;;5.75;2.35;;;;;;;21.77;40.50;99972.56;5050610;28;20124;-84
2022/08/13 02:04:28;;;;;;;6.75;2.83;;;;;;;21.73;40.62;99973.56;5049392;28;20547;-84
2022/08/13 02:06:54;;;;;;;6.55;2.58;;;;;;;21.72;40.90;99974.75;5048629;28;20053;-79
2022/08/13 02:09:23;;;;;;;8.35;2.28;;;;;;;21.63;41.23;99972.81;5045680;28;20028;-80
2022/08/13 02:11:49;;;;;;;5.90;2.20;;;;;;;21.60;41.21;99969.91;5040984;28;20484;-79
2022/08/13 02:14:15;;;;;;;4.60;2.50;;;;;;;21.53;41.30;99970.44;5041594;28;20052;-81
2022/08/13 02:16:41;;;;;;;6.15;2.45;;;;;;;21.54;41.59;99969.31;5045471;28;20029;-83
2022/08/13 02:19:07;;;;;;;4.13;2.55;;;;;;;21.51;41.21;99970.78;5046393;28;20163;-83
2022/08/13 02:21:36;;;;;;;4.65;2.38;;;;;;;21.51;41.35;99969.97;5049516;28;20037;-89
2022/08/13 02:24:04;;;;;;;4.22;2.45;;;;;;;21.40;41.72;99975.88;5050009;28;20518;-89
2022/08/13 02:26:34;;;;;;;6.55;2.70;;;;;;;21.44;41.47;99967.69;5049645;28;20040;-83
2022/08/13 02:29:03;;;;;;;4.30;2.42;;;;;;;21.49;42.32;99975.03;5046854;28;20029;-83
2022/08/13 02:31:28;;;;;;;3.42;2.42;;;;;;;21.49;41.97;99969.47;5049124;28;20074;-81
2022/08/13 02:33:55;;;;;;;6.07;3.08;;;;;;;21.46;41.93;99968.19;5048448;28;20049;-81
2022/08/13 02:36:22;;;;;;;4.93;3.03;;;;;;;21.27;42.33;99976.91;5051808;28;20116;-83
2022/08/13 02:38:54;;;;;;;6.13;2.47;;;;;;;21.04;43.42;99983.53;5051260;28;20028;-83
2022/08/13 02:41:39;;;;;;;5.60;2.70;;;;;;;21.01;42.90;99980.59;5052701;28;20055;-80
2022/08/13 02:44:06;;;;;;;4.20;3.10;;;;;;;20.87;43.04;99987.94;5052153;28;20029;-80
2022/08/13 02:46:31;;;;;;;7.68;3.65;;;;;;;20.65;44.26;99988.97;5052477;28;20041;-84
2022/08/13 02:48:59;;;;;;;4.78;2.97;;;;;;;20.54;45.09;99985.72;5051517;28;20399;-83
2022/08/13 02:51:26;;;;;;;7.72;3.45;;;;;;;20.45;45.33;99982.13;5052144;28;20025;-83
2022/08/13 02:53:52;;;;;;;4.50;3.15;;;;;;;20.28;45.72;99983.75;5052432;28;20040;-83
2022/08/13 02:56:18;;;;;;;9.55;3.70;;;;;;;20.26;45.50;99986.03;5052817;28;20120;-83
2022/08/13 02:58:43;;;;;;;6.10;3.45;;;;;;;20.29;45.40;99988.19;5051245;28;20474;-80
2022/08/13 03:01:11;;;;;;;3.92;2.70;;;;;;;20.24;45.52;99997.44;5048434;28;20056;-80
2022/08/13 03:03:38;;;;;;;16.10;5.50;;;;;;;20.24;45.70;99993.88;5049020;28;20056;-89
2022/08/13 03:06:04;;;;;;;11.73;3.90;;;;;;;20.23;45.55;99997.78;5053264;28;20608;-90
2022/08/13 03:08:29;;;;;;;6.05;3.35;;;;;;;20.34;45.28;99988.00;5052031;28;20478;-93
2022/08/13 03:10:56;;;;;;;5.88;3.38;;;;;;;20.33;45.87;99986.38;5053104;28;20112;-94
2022/08/13 03:13:26;;;;;;;5.43;3.30;;;;;;;20.42;45.76;99994.69;5052553;28;20025;-82
2022/08/13 03:15:54;;;;;;;12.35;3.95;;;;;;;20.41;45.78;99990.28;5051300;28;20420;-81
2022/08/13 03:18:19;;;;;;;6.28;3.33;;;;;;;20.46;45.29;100001.19;5051694;28;20022;-89
2022/08/13 03:20:45;;;;;;;5.63;3.07;;;;;;;20.27;45.74;99993.22;5056655;28;20028;-90
2022/08/13 03:23:11;;;;;;;6.55;3.70;;;;;;;20.34;45.99;99993.53;5054447;28;20337;-82
2022/08/13 03:25:37;;;;;;;4.18;2.78;;;;;;;20.28;46.10;99997.59;5051312;28;20060;-82
2022/08/13 03:28:04;;;;;;;7.30;3.58;;;;;;;20.12;46.49;99992.56;5051511;28;20119;-92
2022/08/13 03:30:34;;;;;;;5.13;3.17;;;;;;;20.14;46.48;99990.28;5052622;28;20115;-93
2022/08/13 03:33:04;;;;;;;5.55;2.88;;;;;;;20.28;46.48;99992.06;5051967;28;20033;-87
2022/08/13 03:35:30;;;;;;;9.02;3.33;;;;;;;20.33;46.01;99991.09;5053248;28;20488;-93
2022/08/13 03:37:55;;;;;;;6.18;3.33;;;;;;;20.42;45.75;99984.41;5052576;28;20056;-92
2022/08/13 03:40:23;;;;;;;6.70;3.15;;;;;;;20.45;45.71;99990.44;5038732;28;20038;-93
2022/08/13 03:42:49;;;;;;;9.50;3.67;;;;;;;20.26;46.17;99994.34;5032721;28;20128;-94
2022/08/13 03:45:16;;;;;;;12.75;3.72;;;;;;;20.24;46.14;99989.13;5048317;28;20056;-81
2022/08/13 03:47:42;;;;;;;6.88;3.53;;;;;;;20.14;46.52;99989.47;5049132;28;20106;-81
2022/08/13 03:50:09;;;;;;;6.30;3.80;;;;;;;20.14;46.51;99993.06;5051330;28;20036;-93
2022/08/13 03:52:35;;;;;;;10.20;4.25;;;;;;;20.04;46.42;99996.09;5052295;28;20037;-93
2022/08/13 03:55:04;;;;;;;5.80;3.33;;;;;;;20.02;46.28;99990.88;5052499;28;20478;-90
2022/08/13 03:57:30;;;;;;;8.70;3.35;;;;;;;19.98;46.86;99991.84;5052098;28;20060;-91
2022/08/13 03:59:55;;;;;;;5.72;3.67;;;;;;;19.94;46.51;99997.22;5050521;28;20575;-83
2022/08/13 04:02:20;;;;;;;7.25;3.45;;;;;;;19.98;46.62;99991.84;5050960;28;20175;-82
2022/08/13 04:04:50;;;;;;;5.95;3.65;;;;;;;19.86;47.23;100001.59;5050429;28;20067;-83
2022/08/13 04:07:18;;;;;;;6.88;3.17;;;;;;;19.82;47.18;100001.44;5050830;28;20112;-83
2022/08/13 04:09:45;;;;;;;3.83;2.97;;;;;;;19.80;47.10;100011.19;5049452;28;20048;-80
2022/08/13 04:12:12;;;;;;;7.10;3.33;;;;;;;19.69;47.36;100000.44;5050248;28;20473;-80
2022/08/13 04:14:44;;;;;;;6.43;3.38;;;;;;;19.53;47.50;100004.75;5050585;28;20044;-81
2022/08/13 04:17:10;;;;;;;6.55;3.83;;;;;;;19.60;47.36;99996.84;5050531;28;20052;-81
2022/08/13 04:19:40;;;;;;;5.68;3.58;;;;;;;19.63;47.35;100004.47;5049738;28;20372;-84
2022/08/13 04:22:07;;;;;;;6.07;3.92;;;;;;;19.61;47.54;100001.22;5050943;28;20476;-83
2022/08/13 04:24:33;;;;;;;7.20;3.53;;;;;;;19.67;47.43;100001.91;5051550;28;20028;-90
2022/08/13 04:26:59;;;;;;;5.28;3.38;;;;;;;19.69;47.64;100003.19;5051365;28;20051;-90
2022/08/13 04:29:25;;;;;;;6.45;3.38;;;;;;;19.68;47.75;99998.00;5043977;28;20041;-83
2022/08/13 04:31:50;;;;;;;5.28;3.60;;;;;;;19.68;47.65;99998.81;5031160;28;20060;-83
2022/08/13 04:34:20;;;;;;;6.05;3.58;;;;;;;19.72;47.87;100001.75;5030948;28;20111;-90
2022/08/13 04:36:46;;;;;;;6.20;4.05;;;;;;;19.81;47.97;100004.53;5031400;28;20033;-90
2022/08/13 04:39:11;;;;;;;7.03;3.53;;;;;;;19.69;48.48;100000.44;5035707;28;20041;-94
2022/08/13 04:41:36;;;;;;;4.93;3.67;;;;;;;19.71;48.02;99994.56;5031343;28;20036;-94
2022/08/13 04:44:02;;;;;;;7.20;4.53;;;;;;;19.63;48.61;99998.94;5031176;28;20035;-81
2022/08/13 04:46:27;;;;;;;7.00;4.28;;;;;;;19.56;49.04;99999.44;5041925;28;20749;-81
2022/08/13 04:48:55;;;;;;;12.30;4.55;;;;;;;19.39;49.74;100000.16;5047841;28;20479;-80
2022/08/13 04:51:20;;;;;;;8.40;4.07;;;;;;;19.30;49.93;100002.09;5049630;28;20056;-80
2022/08/13 04:53:46;;;;;;;5.82;3.90;;;;;;;19.22;50.21;100001.72;5049836;28;20064;-83
2022/08/13 04:56:12;;;;;;;7.70;4.70;;;;;;;19.18;51.16;100005.44;5048792;28;20221;-83
2022/08/13 04:58:38;;;;;;;5.65;4.00;;;;;;;19.11;51.70;100005.88;5042216;28;20036;-84
2022/08/13 05:01:08;;;;;;;5.15;3.83;;;;;;;19.19;51.28;100007.06;5031247;28;20033;-84
2022/08/13 05:03:37;;;;;;;4.97;3.88;;;;;;;19.11;51.48;100006.69;5036046;28;20101;-81
2022/08/13 05:06:02;;;;;;;8.32;3.97;;;;;;;19.09;51.64;100008.13;5049491;28;20035;-81
2022/08/13 05:08:31;;;;;;;7.35;4.13;;;;;;;18.92;52.33;100011.59;5045393;28;20029;-82
2022/08/13 05:10:57;;;;;;;5.28;3.40;;;;;;;19.09;52.54;100008.13;5045080;28;20435;-83
2022/08/13 05:13:30;;;;;;;7.50;3.90;;;;;;;19.16;52.79;100016.81;5041613;28;20229;-82
2022/08/13 05:15:57;;;;;;;5.40;4.03;;;;;;;19.19;53.00;100016.19;5044745;28;20408;-81
2022/08/13 05:18:23;;;;;;;8.73;4.45;;;;;;;19.29;52.57;100012.31;5048358;28;20043;-81
2022/08/13 05:20:52;;;;;;;8.80;4.40;;;;;;;19.34;53.14;100014.13;5039648;28;20412;-81
2022/08/13 05:23:19;;;;;;;7.00;4.25;;;;;;;19.48;52.74;100019.56;5030059;28;20263;-83
2022/08/13 05:25:45;;;;;;;10.05;3.80;;;;;;;19.57;52.32;100017.63;5032489;28;20033;-83
2022/08/13 05:28:10;;;;;;;6.07;3.63;;;;;;;19.59;52.25;100023.66;5029600;28;20030;-79
2022/08/13 05:30:38;;;;;;;13.23;4.00;;;;;;;19.70;51.83;100021.44;5048143;28;20115;-79
2022/08/13 05:33:17;;;;;;;6.00;3.65;;;;;;;19.81;51.01;100029.44;5044641;28;20040;-80
2022/08/13 05:35:44;;;;;;;8.95;3.70;;;;;;;19.90;51.01;100024.72;5039650;28;20028;-80
2022/08/13 05:38:09;;;;;;;13.77;4.05;;;;;;;19.93;50.34;100023.28;5047749;28;20032;-80
2022/08/13 05:40:35;;;;;;;6.22;3.65;;;;;;;20.00;50.55;100033.84;5045343;28;20040;-80
2022/08/13 05:43:02;;;;;;;11.77;4.55;;;;;;;19.99;50.43;100037.75;5049206;28;20029;-83
2022/08/13 05:45:28;;;;;;;11.38;3.20;;;;;;;20.05;51.30;100036.47;5046042;28;20029;-84
2022/08/13 05:47:53;;;;;;;13.73;4.05;;;;;;;20.14;50.76;100028.19;5082759;28;20610;-85
2022/08/13 05:50:18;;;;;;;8.33;3.40;;;;;;;20.22;50.54;100030.16;5049547;28;20507;-84
2022/08/13 05:52:44;;;;;;;9.05;3.33;;;;;;;20.29;50.29;100019.44;5050974;28;20293;-86
2022/08/13 05:55:13;;;;;;;8.07;3.30;;;;;;;20.35;50.25;100022.88;5052690;28;20158;-86
2022/08/13 05:57:39;;;;;;;7.90;3.60;;;;;;;20.48;49.36;100025.78;5054090;28;20025;-86
2022/08/13 06:05:37;;;;;;;5.60;3.25;;;;;;;20.73;49.50;100031.63;5049321;28;20055;-78
2022/08/13 06:08:07;;;;;;;5.00;3.38;;;;;;;20.76;48.73;100028.22;5049154;28;20039;-82
2022/08/13 06:10:33;;;;;;;4.72;3.10;;;;;;;20.80;47.95;100020.06;5049318;28;20048;-82
2022/08/13 06:12:59;;;;;;;4.50;3.10;;;;;;;20.93;48.17;100023.78;5053236;28;20040;-81
2022/08/13 06:15:26;;;;;;;5.30;3.13;;;;;;;21.00;48.46;100029.66;5050722;28;20055;-81
2022/08/13 06:17:52;;;;;;;4.80;2.90;;;;;;;21.08;48.02;100028.00;5052115;28;20131;-80
2022/08/13 06:20:20;;;;;;;4.13;2.55;;;;;;;21.10;47.38;100032.09;5050919;28;20040;-78
2022/08/13 06:22:47;;;;;;;8.50;3.80;;;;;;;21.20;48.51;100030.09;5052222;28;20240;-78
2022/08/13 06:25:15;;;;;;;5.93;3.20;;;;;;;21.28;48.56;100029.25;5055502;28;20446;-96
2022/08/13 06:27:41;;;;;;;4.43;2.97;;;;;;;21.28;48.78;100031.22;5054516;28;20040;-94
2022/08/13 06:30:09;;;;;;;5.10;3.13;;;;;;;21.31;48.80;100025.84;5050146;28;20060;-81
2022/08/13 06:32:36;;;;;;;5.22;3.50;;;;;;;21.33;48.77;100031.03;5032181;28;20033;-82
2022/08/13 06:35:05;;;;;;;4.97;3.58;;;;;;;21.41;49.09;100027.44;5040547;28;20060;-82
2022/08/13 06:37:32;;;;;;;7.18;3.65;;;;;;;21.37;49.03;100025.63;5051837;28;20041;-82
2022/08/13 06:39:59;;;;;;;5.05;3.35;;;;;;;21.42;49.29;100028.22;5048981;28;20048;-82
2022/08/13 06:42:26;;;;;;;10.35;3.83;;;;;;;21.44;49.39;100031.47;5051825;28;20082;-81
2022/08/13 06:44:54;;;;;;;7.72;3.17;;;;;;;21.47;49.51;100030.81;5052163;28;20041;-88
2022/08/13 06:47:22;;;;;;;8.02;3.10;;;;;;;21.54;49.38;100025.56;5051915;28;20032;-88
2022/08/13 06:49:47;;;;;;;8.93;3.97;;;;;;;21.57;49.04;100040.72;5051014;28;20063;-83
2022/08/13 06:52:13;;;;;;;5.17;3.10;;;;;;;21.66;48.82;100037.94;5051554;28;20037;-83
2022/08/13 06:54:38;;;;;;;6.47;3.50;;;;;;;21.69;48.95;100037.25;5052899;28;20305;-95
2022/08/13 06:57:04;;;;;;;7.80;3.53;;;;;;;21.79;49.51;100031.31;5053794;28;20278;-96
2022/08/13 06:59:33;;;;;;;7.25;3.70;;;;;;;21.83;49.19;100044.53;5051860;28;20112;-86
2022/08/13 07:02:00;;;;;;;5.55;3.05;;;;;;;21.91;48.36;100049.22;5053009;28;20039;-87
2022/08/13 07:04:26;;;;;;;8.77;3.25;;;;;;;21.89;47.94;100040.44;5052183;28;20527;-80
2022/08/13 07:06:52;;;;;;;9.32;3.88;;;;;;;21.97;48.79;100047.09;5051614;28;20037;-80
2022/08/13 07:09:18;;;;;;;5.43;2.90;;;;;;;22.00;48.61;100046.41;5048807;28;20045;-84
2022/08/13 07:11:45;;;;;;;14.07;3.80;;;;;;;22.06;48.35;100045.06;5051084;28;20049;-83
2022/08/13 07:14:13;;;;;;;5.80;3.00;;;;;;;22.09;47.51;100043.59;5051823;28;20044;-83
2022/08/13 07:16:40;;;;;;;11.43;4.13;;;;;;;22.15;48.06;100045.03;5051849;28;20064;-83
2022/08/13 07:19:06;;;;;;;7.10;3.63;;;;;;;22.16;47.32;100043.84;5051058;28;20024;-92
2022/08/13 07:21:32;;;;;;;6.65;2.90;;;;;;;22.16;47.12;100043.84;5053349;28;20438;-92
2022/08/13 07:24:02;;;;;;;4.55;2.92;;;;;;;22.19;48.19;100043.16;5053517;28;20040;-91
2022/08/13 07:26:29;;;;;;;4.43;2.75;;;;;;;22.25;47.13;100050.16;5049545;28;20037;-92
2022/08/13 07:28:55;;;;;;;5.53;4.00;;;;;;;22.25;48.27;100047.38;5044715;28;20462;-90
2022/08/13 07:31:31;;;;;;;4.85;2.97;;;;;;;22.35;47.25;100046.16;5032216;28;20026;-90
2022/08/13 07:33:59;;;;;;;6.32;3.15;;;;;;;22.39;46.42;100049.09;5031933;28;20128;-80
2022/08/13 07:36:27;;;;;;;5.78;3.00;;;;;;;22.45;46.23;100052.47;5029506;28;20080;-80
2022/08/13 07:38:53;;;;;;;5.57;2.80;;;;;;;22.56;46.59;100058.41;5035464;28;20040;-84
2022/08/13 07:41:20;;;;;;;5.05;2.92;;;;;;;22.57;46.65;100060.06;5050810;28;20047;-84
2022/08/13 07:43:46;;;;;;;5.53;2.97;;;;;;;22.58;48.16;100056.09;5051257;28;20029;-83
2022/08/13 07:46:15;;;;;;;5.43;3.20;;;;;;;22.59;46.66;100050.22;5050930;28;20036;-84
2022/08/13 07:48:52;;;;;;;6.28;3.13;;;;;;;22.74;45.29;100050.75;5048292;28;20025;-80
2022/08/13 07:51:19;;;;;;;3.70;2.15;;;;;;;23.02;43.23;100049.38;5049101;28;20127;-80
2022/08/13 07:53:55;;;;;;;5.93;3.00;;;;;;;23.08;44.27;100056.34;5051127;28;20126;-90
2022/08/13 07:56:31;;;;;;;4.45;2.83;;;;;;;23.21;42.83;100052.41;5051796;28;20055;-90
2022/08/13 07:59:01;;;;;;;4.88;2.90;;;;;;;23.21;43.40;100055.19;5050899;28;20041;-90
2022/08/13 08:01:27;;;;;;;5.22;2.30;;;;;;;23.30;43.15;100052.34;5052062;28;20025;-89
2022/08/13 08:03:56;;;;;;;4.63;2.45;;;;;;;23.42;43.62;100056.28;5051548;28;20040;-90
2022/08/13 08:06:22;;;;;;;5.47;4.05;;;;;;;23.35;43.92;100044.91;5051791;28;20172;-90
2022/08/13 08:08:52;;;;;;;8.57;2.88;;;;;;;23.34;44.20;100058.00;5050715;28;20029;-84
2022/08/13 08:14:03;;;;;;;6.93;3.42;;;;;;;23.33;44.13;100050.81;5050969;28;20059;-84
2022/08/13 08:16:32;;;;;;;5.72;2.75;;;;;;;23.37;43.92;100048.97;5050785;28;20040;-84
2022/08/13 08:18:59;;;;;;;4.28;2.60;;;;;;;23.41;43.51;100047.13;5049417;28;20037;-84
2022/08/13 08:21:25;;;;;;;6.65;2.60;;;;;;;23.54;44.00;100050.75;5050854;28;20484;-84
2022/08/13 08:23:56;;;;;;;5.53;2.25;;;;;;;23.54;43.40;100041.59;5050862;28;20415;-81
2022/08/13 08:26:26;;;;;;;4.82;2.92;;;;;;;23.48;43.24;100040.19;5049691;28;20032;-81
2022/08/13 08:28:54;;;;;;;5.13;2.17;;;;;;;23.61;42.82;100041.03;5049159;28;20036;-84
2022/08/13 08:31:19;;;;;;;4.35;2.50;;;;;;;23.64;42.93;100046.69;5049367;28;20415;-84
2022/08/13 08:33:46;;;;;;;6.65;3.28;;;;;;;24.01;41.63;100042.28;5050665;28;20029;-92
2022/08/13 08:36:12;;;;;;;5.95;2.58;;;;;;;24.13;41.23;100045.03;5056852;28;20028;-92
2022/08/13 08:44:37;;;;;;;2.88;1.90;;;;;;;23.87;41.22;100035.09;5031127;28;20040;-84
2022/08/13 08:47:02;;;;;;;3.60;1.70;;;;;;;23.96;41.52;100040.53;5047098;28;20044;-84
2022/08/13 08:49:30;;;;;;;3.60;1.98;;;;;;;23.96;41.58;100040.53;5048332;28;20033;-80
2022/08/13 08:51:57;;;;;;;4.25;2.20;;;;;;;24.08;40.43;100036.13;5049077;28;20036;-81
2022/08/13 08:54:23;;;;;;;4.88;2.42;;;;;;;24.42;40.16;100030.38;5049087;28;20025;-81
2022/08/13 08:56:54;;;;;;;4.22;2.38;;;;;;;24.53;39.52;100031.47;5047977;28;20036;-80
2022/08/13 08:59:23;;;;;;;6.45;2.53;;;;;;;25.23;36.91;100019.41;5047963;28;20087;-91
2022/08/13 09:01:51;;;;;;;3.25;2.60;;;;;;;25.46;36.92;100022.41;5050847;28;20037;-90
2022/08/13 09:04:20;;;;;;;2.83;1.85;;;;;;;25.29;37.79;100023.56;5048784;28;20058;-91
2022/08/13 09:06:49;;;;;;;4.72;2.60;;;;;;;25.06;37.77;100022.19;5049299;28;20423;-90
2022/08/13 09:09:16;;;;;;;8.77;2.03;;;;;;;24.99;38.17;100016.44;5043946;28;20041;-85
2022/08/13 09:11:42;;;;;;;4.55;1.88;;;;;;;25.01;37.26;100018.88;5029935;28;20538;-85
2022/08/13 09:14:10;;;;;;;3.60;2.03;;;;;;;25.62;36.87;100013.19;5047057;28;20048;-81
2022/08/13 09:16:39;;;;;;;4.63;2.08;;;;;;;25.33;37.20;100010.53;5048583;28;20495;-80
2022/08/13 09:19:12;;;;;;;4.25;2.03;;;;;;;25.16;37.45;100003.34;5048040;28;20041;-85
2022/08/13 09:21:42;;;;;;;4.38;1.98;;;;;;;25.21;37.08;100000.25;5049935;28;20040;-85
2022/08/13 09:24:10;;;;;;;3.88;2.30;;;;;;;25.49;37.00;100002.13;5050364;28;20190;-91
2022/08/13 09:26:38;;;;;;;6.30;2.10;;;;;;;26.60;34.14;100006.19;5050470;28;20021;-90
2022/08/13 09:29:05;;;;;;;6.07;2.38;;;;;;;26.60;34.09;100003.38;5048458;28;20388;-84
2022/08/13 09:31:30;;;;;;;6.28;2.38;;;;;;;26.42;34.01;99995.44;5049289;28;20021;-84
2022/08/13 09:33:55;;;;;;;5.47;2.42;;;;;;;26.52;34.14;100007.22;5049445;28;20150;-91
2022/08/13 09:36:22;;;;;;;5.83;2.63;;;;;;;27.12;32.20;100010.72;5050495;28;20396;-91
2022/08/13 09:38:50;;;;;;;4.00;2.35;;;;;;;26.67;33.35;99997.91;5048965;28;20289;-85
2022/08/13 09:41:24;;;;;;;3.58;2.22;;;;;;;26.97;32.86;99984.47;5050134;28;20029;-85
2022/08/13 09:43:49;;;;;;;4.50;2.45;;;;;;;27.25;32.74;99992.59;5050433;28;20060;-90
2022/08/13 09:46:16;;;;;;;5.45;2.60;;;;;;;27.25;32.42;99988.97;5054554;28;20118;-91
2022/08/13 09:48:42;;;;;;;6.05;2.25;;;;;;;27.27;32.31;99995.81;5053667;28;20029;-91
2022/08/13 09:51:13;;;;;;;4.00;2.35;;;;;;;27.44;32.21;99990.06;5034630;28;20038;-91
2022/08/13 09:53:40;;;;;;;3.25;2.03;;;;;;;27.09;33.28;99981.53;5034295;28;20042;-84
2022/08/13 09:56:05;;;;;;;7.07;2.40;;;;;;;27.20;33.21;99983.66;5033463;28;20037;-84
2022/08/13 09:58:32;;;;;;;9.60;2.72;;;;;;;27.15;33.46;99977.22;5035193;28;20025;-82
2022/08/13 10:00:58;;;;;;;5.05;2.47;;;;;;;27.07;34.01;99975.50;5051849;28;20040;-81
2022/08/13 10:03:23;;;;;;;3.17;2.25;;;;;;;26.93;34.23;99974.00;5052536;28;20036;-86
2022/08/13 10:05:50;;;;;;;5.47;2.45;;;;;;;27.34;32.96;99972.72;5052596;28;20039;-85
2022/08/13 10:08:17;;;;;;;4.32;1.92;;;;;;;26.98;34.01;99963.69;5053213;28;20029;-85
2022/08/13 10:10:44;;;;;;;3.08;2.15;;;;;;;27.63;32.82;99961.97;5052576;28;20043;-85
2022/08/13 10:13:10;;;;;;;3.85;2.28;;;;;;;27.85;32.48;99967.91;5053157;28;20067;-82
2022/08/13 10:15:35;;;;;;;3.15;1.85;;;;;;;27.97;31.19;99957.63;5051968;28;20131;-81
2022/08/13 10:18:02;;;;;;;5.07;1.80;;;;;;;27.62;32.83;99951.94;5051890;28;20140;-85
2022/08/13 10:20:33;;;;;;;4.75;1.95;;;;;;;27.66;31.51;99945.59;5050022;28;20399;-85
2022/08/13 10:23:01;;;;;;;2.85;1.90;;;;;;;27.73;30.72;99951.28;5053465;28;20037;-85
2022/08/13 10:25:28;;;;;;;2.35;1.65;;;;;;;27.94;30.18;99945.22;5052715;28;20037;-85
2022/08/13 10:27:53;;;;;;;2.38;1.35;;;;;;;28.15;28.31;99955.06;5052723;28;20044;-85
2022/08/13 10:30:24;;;;;;;2.72;1.30;;;;;;;28.33;27.06;99951.69;5051300;28;20072;-85
2022/08/13 10:32:50;;;;;;;2.88;1.15;;;;;;;28.48;26.07;99949.03;5051744;28;20053;-85
2022/08/13 10:35:19;;;;;;;2.13;1.50;;;;;;;28.19;28.31;99938.31;5050662;28;20099;-81
2022/08/13 10:37:53;;;;;;;3.22;1.92;;;;;;;28.37;27.70;99941.31;5051792;28;20048;-81
2022/08/13 10:40:20;;;;;;;3.67;1.98;;;;;;;28.44;27.62;99935.00;5050606;28;20036;-81
2022/08/13 10:42:45;;;;;;;3.15;1.88;;;;;;;28.23;27.96;99930.75;5050295;28;20025;-81
2022/08/13 10:45:12;;;;;;;3.35;1.75;;;;;;;28.25;28.17;99928.38;5051759;28;20032;-81
2022/08/13 10:47:57;;;;;;;3.40;1.40;;;;;;;28.37;27.41;99932.91;5051135;28;20040;-81
2022/08/13 10:50:29;;;;;;;2.22;1.58;;;;;;;28.43;27.84;99939.00;5050589;28;20056;-81
2022/08/13 10:52:56;;;;;;;4.00;2.47;;;;;;;28.79;27.16;99932.94;5051384;28;20050;-81
2022/08/13 10:55:23;;;;;;;3.35;1.48;;;;;;;28.87;27.60;99905.75;5050851;28;20084;-81
2022/08/13 10:57:48;;;;;;;3.25;1.80;;;;;;;28.83;27.75;99916.94;5051275;28;20147;-81
2022/08/13 11:00:19;;;;;;;2.72;1.63;;;;;;;29.00;27.87;99926.72;5052017;28;20128;-85
2022/08/13 11:02:48;;;;;;;2.45;1.92;;;;;;;29.09;27.76;99928.41;5052980;28;20021;-85
2022/08/13 11:05:13;;;;;;;2.42;1.48;;;;;;;28.83;27.88;99921.75;5054223;28;20590;-92
2022/08/13 11:07:39;;;;;;;2.10;1.57;;;;;;;28.83;27.17;99910.53;5053080;28;20029;-92
2022/08/13 11:10:07;;;;;;;2.95;1.63;;;;;;;29.23;26.26;99911.66;5040567;28;20270;-85
2022/08/13 11:12:33;;;;;;;1.73;1.52;;;;;;;29.09;26.15;99911.56;5036858;28;20032;-85
2022/08/13 11:14:59;;;;;;;4.07;1.70;;;;;;;29.33;25.86;99904.50;5052465;28;20084;-85
2022/08/13 11:17:24;;;;;;;2.85;1.50;;;;;;;29.40;25.51;99903.75;5050323;28;20499;-85
2022/08/13 11:19:50;;;;;;;6.90;2.13;;;;;;;29.43;25.50;99897.34;5040756;28;20033;-91
2022/08/13 11:22:17;;;;;;;3.78;1.67;;;;;;;29.71;24.30;99895.94;5032846;28;20029;-91
2022/08/13 11:24:43;;;;;;;4.55;2.47;;;;;;;29.26;25.60;99904.47;5031667;28;20523;-91
2022/08/13 11:27:08;;;;;;;2.50;1.67;;;;;;;29.57;25.07;99901.47;5032144;28;20030;-91
2022/08/13 11:29:33;;;;;;;4.90;2.00;;;;;;;29.35;26.11;99895.72;5052648;28;20424;-85
2022/08/13 11:31:59;;;;;;;3.53;1.30;;;;;;;29.44;25.85;99893.38;5043324;28;20032;-85
2022/08/13 11:34:27;;;;;;;3.50;1.50;;;;;;;29.45;25.83;99889.34;5035674;28;20287;-85
2022/08/13 11:36:52;;;;;;;2.20;1.92;;;;;;;29.81;25.22;99885.16;5051789;28;20060;-85
2022/08/13 11:39:18;;;;;;;3.70;1.70;;;;;;;29.95;25.06;99882.41;5049696;28;20036;-84
2022/08/13 11:41:43;;;;;;;2.97;1.55;;;;;;;30.08;24.62;99876.41;5051049;28;20032;-84
2022/08/13 11:44:09;;;;;;;3.38;2.30;;;;;;;30.06;24.58;99881.63;5051895;28;20040;-91
2022/08/13 11:46:34;;;;;;;3.17;1.80;;;;;;;29.78;24.63;99878.31;5051814;28;20094;-91
2022/08/13 11:48:59;;;;;;;2.15;1.67;;;;;;;29.90;24.85;99873.56;5049530;28;20538;-91
2022/08/13 11:51:25;;;;;;;5.65;1.95;;;;;;;30.11;24.65;99878.44;5050935;28;20028;-92
2022/08/13 11:53:50;;;;;;;6.50;1.70;;;;;;;30.04;24.98;99875.59;5051480;28;20043;-81